Time;durP1;ratioP1;P1;durP2;ratioP2;P2;SDS_P1;SDS_P2;PMS_P1;PMS_P2;Temp;Humidity;BMP_temperature;BMP_pressure;BME280_temperature;BME280_humidity;BME280_pressure;Samples;Min_cycle;Max_cycle;Signal;HPM_P1;HPM_P2
2022/06/29 00:00:11;;;;;;;1999.90;999.90;;;16.90;99.90;;;;;;5075103;28;20562;-58
2022/06/29 00:02:38;;;;;;;1999.90;999.90;;;16.80;99.90;;;;;;5075626;28;20685;-57
2022/06/29 00:05:08;;;;;;;1999.90;999.90;;;16.70;99.90;;;;;;5075713;28;20209;-57
2022/06/29 00:07:35;;;;;;;1999.90;999.90;;;16.70;99.90;;;;;;5075275;28;20188;-57
2022/06/29 00:10:03;;;;;;;1999.90;999.90;;;16.70;99.90;;;;;;5074968;28;20224;-57
2022/06/29 00:12:30;;;;;;;1999.90;999.90;;;16.70;99.90;;;;;;5075454;28;20230;-57
2022/06/29 00:14:57;;;;;;;1999.90;999.90;;;16.70;99.90;;;;;;5075268;28;20670;-57
2022/06/29 00:17:24;;;;;;;1999.90;999.90;;;16.70;99.90;;;;;;5074801;28;20214;-58
2022/06/29 00:19:51;;;;;;;1999.90;999.90;;;16.60;99.90;;;;;;5075026;28;20216;-57
2022/06/29 00:22:20;;;;;;;1999.90;999.90;;;16.50;99.90;;;;;;5074974;28;20206;-59
2022/06/29 00:24:47;;;;;;;1999.90;999.90;;;16.50;99.90;;;;;;5075192;28;20245;-58
2022/06/29 00:27:14;;;;;;;1999.90;999.90;;;16.50;99.90;;;;;;5074818;28;20199;-59
2022/06/29 00:29:42;;;;;;;1999.90;999.90;;;16.50;99.90;;;;;;5075198;28;20252;-58
2022/06/29 00:32:09;;;;;;;1999.90;999.90;;;16.50;99.90;;;;;;5074114;28;20207;-59
2022/06/29 00:34:36;;;;;;;1999.90;999.90;;;16.40;99.90;;;;;;5075137;28;20199;-57
2022/06/29 00:37:04;;;;;;;1999.90;999.90;;;16.40;99.90;;;;;;5074770;28;20196;-59
2022/06/29 00:39:33;;;;;;;1999.90;999.90;;;16.40;99.90;;;;;;5074794;28;20547;-59
2022/06/29 00:42:01;;;;;;;1999.90;999.90;;;16.40;99.90;;;;;;5075191;28;20205;-58
2022/06/29 00:44:28;;;;;;;1999.90;999.90;;;16.40;99.90;;;;;;5074946;28;20211;-59
2022/06/29 00:46:57;;;;;;;1999.90;999.90;;;16.40;99.90;;;;;;5074484;28;20186;-59
2022/06/29 00:49:25;;;;;;;1999.90;999.90;;;16.30;99.90;;;;;;5074931;28;20208;-58
2022/06/29 00:52:03;;;;;;;1999.90;999.90;;;16.30;99.90;;;;;;5074476;28;20668;-59
2022/06/29 00:54:36;;;;;;;1999.90;999.90;;;16.30;99.90;;;;;;5073983;28;20660;-59
2022/06/29 00:57:08;;;;;;;1999.90;999.90;;;16.20;99.90;;;;;;5073637;28;20189;-59
2022/06/29 00:59:43;;;;;;;1999.90;999.90;;;16.20;99.90;;;;;;5074434;28;20183;-57
2022/06/29 01:02:10;;;;;;;1999.90;999.90;;;16.20;99.90;;;;;;5074306;28;20202;-58
2022/06/29 01:04:38;;;;;;;1999.90;999.90;;;16.30;99.90;;;;;;5074281;28;20199;-58
2022/06/29 01:07:05;;;;;;;1999.90;999.90;;;16.20;99.90;;;;;;5074167;28;20256;-58
2022/06/29 01:09:34;;;;;;;1999.90;999.90;;;16.20;99.90;;;;;;5074033;28;20235;-59
2022/06/29 01:12:01;;;;;;;1999.90;999.90;;;16.20;99.90;;;;;;5074257;28;20674;-57
2022/06/29 01:14:29;;;;;;;1999.90;999.90;;;16.20;99.90;;;;;;5074216;28;20226;-57
2022/06/29 01:16:56;;;;;;;1999.90;999.90;;;16.20;99.90;;;;;;5074303;28;20203;-58
2022/06/29 01:19:23;;;;;;;1999.90;999.90;;;16.20;99.90;;;;;;5074404;28;20202;-58
2022/06/29 01:21:52;;;;;;;1999.90;999.90;;;16.10;99.90;;;;;;5073982;28;20205;-58
2022/06/29 01:24:21;;;;;;;1999.90;999.90;;;16.10;99.90;;;;;;5072309;28;20205;-57
2022/06/29 01:26:48;;;;;;;1999.90;999.90;;;16.00;99.90;;;;;;5072994;28;20199;-57
2022/06/29 01:29:16;;;;;;;1999.90;999.90;;;16.00;99.90;;;;;;5073290;28;20201;-57
2022/06/29 01:31:44;;;;;;;1999.90;999.90;;;15.90;99.90;;;;;;5073339;28;20209;-57
2022/06/29 01:34:11;;;;;;;1999.90;999.90;;;15.90;99.90;;;;;;5073222;28;20220;-57
2022/06/29 01:36:38;;;;;;;1999.90;999.90;;;15.90;99.90;;;;;;5073906;28;20203;-57
2022/06/29 01:39:06;;;;;;;1999.90;999.90;;;15.90;99.90;;;;;;5073578;28;20205;-57
2022/06/29 01:41:34;;;;;;;1999.90;999.90;;;15.90;99.90;;;;;;5073549;28;20675;-57
2022/06/29 01:44:01;;;;;;;1999.90;999.90;;;16.00;99.90;;;;;;5072102;28;20222;-59
2022/06/29 01:46:28;;;;;;;1999.90;999.90;;;16.00;99.90;;;;;;5072803;28;20199;-58
2022/06/29 01:48:55;;;;;;;1999.90;999.90;;;16.00;99.90;;;;;;5073338;28;20200;-59
2022/06/29 01:51:23;;;;;;;1999.90;999.90;;;16.00;99.90;;;;;;5073550;28;20195;-57
2022/06/29 01:53:50;;;;;;;1999.90;999.90;;;15.90;99.90;;;;;;5073450;28;20221;-58
2022/06/29 01:56:17;;;;;;;1999.90;999.90;;;15.90;99.90;;;;;;5073217;28;20209;-59
2022/06/29 01:58:47;;;;;;;1999.90;999.90;;;15.90;99.90;;;;;;5072741;28;20191;-58
2022/06/29 02:01:15;;;;;;;1999.90;999.90;;;15.80;99.90;;;;;;5073477;28;20194;-58
2022/06/29 02:03:42;;;;;;;1999.90;999.90;;;15.80;99.90;;;;;;5073434;28;20191;-57
2022/06/29 02:06:09;;;;;;;1999.90;999.90;;;15.70;99.90;;;;;;5073074;28;20260;-58
2022/06/29 02:08:36;;;;;;;1999.90;999.90;;;15.80;99.90;;;;;;5072874;28;20201;-58
2022/06/29 02:11:04;;;;;;;1999.90;999.90;;;15.70;99.90;;;;;;5072863;28;20227;-57
2022/06/29 02:13:31;;;;;;;1999.90;999.90;;;15.80;99.90;;;;;;5073144;28;20211;-58
2022/06/29 02:16:00;;;;;;;1999.90;999.90;;;15.70;99.90;;;;;;5072912;28;20593;-57
2022/06/29 02:18:27;;;;;;;1999.90;999.90;;;15.70;99.90;;;;;;5072342;28;20224;-59
2022/06/29 02:20:54;;;;;;;1999.90;999.90;;;15.70;99.90;;;;;;5073264;28;20320;-58
2022/06/29 02:23:21;;;;;;;1999.90;999.90;;;15.70;99.90;;;;;;5072935;28;20196;-58
2022/06/29 02:25:49;;;;;;;1999.90;999.90;;;15.60;99.90;;;;;;5072982;28;20195;-58
2022/06/29 02:28:16;;;;;;;1999.90;999.90;;;15.50;99.90;;;;;;5071788;28;20192;-58
2022/06/29 02:36:13;;;;;;;1999.90;999.90;;;15.40;99.90;;;;;;5072892;28;20183;-58
2022/06/29 02:38:40;;;;;;;1999.90;999.90;;;15.40;99.90;;;;;;5072984;28;20561;-61
2022/06/29 02:41:07;;;;;;;1999.90;999.90;;;15.40;99.90;;;;;;5072646;28;20700;-58
2022/06/29 02:43:34;;;;;;;1999.90;999.90;;;15.40;99.90;;;;;;5072806;28;20205;-57
2022/06/29 02:46:01;;;;;;;1999.90;999.90;;;15.40;99.90;;;;;;5072801;28;20199;-58
2022/06/29 02:48:32;;;;;;;1999.90;999.90;;;15.40;99.90;;;;;;5072345;28;20190;-58
2022/06/29 02:50:59;;;;;;;1999.90;999.90;;;15.40;99.90;;;;;;5072323;28;20191;-58
2022/06/29 02:53:27;;;;;;;1999.90;999.90;;;15.30;99.90;;;;;;5072429;28;20588;-58
2022/06/29 02:55:55;;;;;;;1999.90;999.90;;;15.40;99.90;;;;;;5072408;28;20201;-59
2022/06/29 02:58:22;;;;;;;1999.90;999.90;;;15.40;99.90;;;;;;5072395;28;20194;-58
2022/06/29 03:00:49;;;;;;;1999.90;999.90;;;15.30;99.90;;;;;;5071569;28;20206;-58
2022/06/29 03:03:16;;;;;;;1999.90;999.90;;;15.30;99.90;;;;;;5072641;28;20197;-57
2022/06/29 03:05:45;;;;;;;1999.90;999.90;;;15.20;99.90;;;;;;5072606;28;20205;-57
2022/06/29 03:08:12;;;;;;;1999.90;999.90;;;15.20;99.90;;;;;;5072289;28;20671;-58
2022/06/29 03:10:39;;;;;;;1999.90;999.90;;;15.30;99.90;;;;;;5071581;28;20230;-57
2022/06/29 03:13:06;;;;;;;1999.90;999.90;;;15.30;99.90;;;;;;5071456;28;20217;-59
2022/06/29 03:15:33;;;;;;;1999.90;999.90;;;15.20;99.90;;;;;;5072175;28;20568;-58
2022/06/29 03:18:00;;;;;;;1999.90;999.90;;;15.30;99.90;;;;;;5072140;28;20219;-58
2022/06/29 03:20:28;;;;;;;1999.90;999.90;;;15.20;99.90;;;;;;5072109;28;20759;-58
2022/06/29 03:22:56;;;;;;;1999.90;999.90;;;15.10;99.90;;;;;;5071400;28;20210;-58
2022/06/29 03:25:23;;;;;;;1999.90;999.90;;;15.10;99.90;;;;;;5072203;28;20207;-58
2022/06/29 03:27:50;;;;;;;1999.90;999.90;;;15.10;99.90;;;;;;5072392;28;20198;-58
2022/06/29 03:30:18;;;;;;;1999.90;999.90;;;15.10;99.90;;;;;;5072082;28;20729;-59
2022/06/29 03:32:45;;;;;;;1999.90;999.90;;;15.00;99.90;;;;;;5071967;28;20199;-58
2022/06/29 03:35:12;;;;;;;1999.90;999.90;;;15.00;99.90;;;;;;5072221;28;20221;-58
2022/06/29 03:37:39;;;;;;;1999.90;999.90;;;15.10;99.90;;;;;;5071876;28;20562;-59
2022/06/29 03:40:09;;;;;;;1999.90;999.90;;;15.10;99.90;;;;;;5071810;28;20610;-59
2022/06/29 03:42:37;;;;;;;1999.90;999.90;;;15.00;99.90;;;;;;5071637;28;20201;-61
2022/06/29 03:45:04;;;;;;;1999.90;999.90;;;15.00;99.90;;;;;;5071993;28;20203;-58
2022/06/29 03:47:31;;;;;;;1999.90;999.90;;;15.00;99.90;;;;;;5071940;28;20213;-59
2022/06/29 03:49:59;;;;;;;1999.90;999.90;;;15.10;99.90;;;;;;5072142;28;20542;-59
2022/06/29 03:52:26;;;;;;;1999.90;999.90;;;15.10;99.90;;;;;;5071235;28;20203;-58
2022/06/29 03:54:53;;;;;;;1999.90;999.90;;;15.10;99.90;;;;;;5070805;28;20275;-59
2022/06/29 03:57:21;;;;;;;1999.90;999.90;;;15.20;99.90;;;;;;5072070;28;20197;-60
2022/06/29 03:59:48;;;;;;;1999.90;999.90;;;15.20;99.90;;;;;;5072400;28;20199;-58
2022/06/29 04:02:15;;;;;;;1999.90;999.90;;;15.20;99.90;;;;;;5072270;28;20207;-58
2022/06/29 04:04:42;;;;;;;1999.90;999.90;;;15.20;99.90;;;;;;5072470;28;20195;-58
2022/06/29 04:07:10;;;;;;;1999.90;999.90;;;15.20;99.90;;;;;;5070902;28;20192;-59
2022/06/29 04:09:37;;;;;;;1999.90;999.90;;;15.20;99.90;;;;;;5075720;28;20235;-59
2022/06/29 04:12:05;;;;;;;1999.90;999.90;;;15.20;99.90;;;;;;5076380;28;20202;-60
2022/06/29 04:14:33;;;;;;;1999.90;999.90;;;15.30;99.90;;;;;;5075151;28;20214;-60
2022/06/29 04:17:00;;;;;;;1999.90;999.90;;;15.30;99.90;;;;;;5075470;28;20209;-59
2022/06/29 04:19:28;;;;;;;1999.90;999.90;;;15.30;99.90;;;;;;5075717;28;20205;-59
2022/06/29 04:21:55;;;;;;;1999.90;999.90;;;15.30;99.90;;;;;;5075021;28;20537;-59
2022/06/29 04:24:23;;;;;;;1999.90;999.90;;;15.30;99.90;;;;;;5076005;28;20195;-59
2022/06/29 04:26:50;;;;;;;1999.90;999.90;;;15.40;99.90;;;;;;5075268;28;20195;-60
2022/06/29 04:29:17;;;;;;;1999.90;999.90;;;15.40;99.90;;;;;;5075262;28;20194;-60
2022/06/29 04:31:46;;;;;;;1999.90;999.90;;;15.50;99.90;;;;;;5074949;28;20604;-59
2022/06/29 04:34:13;;;;;;;1999.90;999.90;;;15.50;99.90;;;;;;5075448;28;20218;-59
2022/06/29 04:36:40;;;;;;;1999.90;999.90;;;15.60;99.90;;;;;;5075496;28;20198;-60
2022/06/29 04:39:07;;;;;;;1999.90;999.90;;;15.60;99.90;;;;;;5074946;28;20203;-60
2022/06/29 04:41:34;;;;;;;1999.90;999.90;;;15.60;99.90;;;;;;5075058;28;20205;-60
2022/06/29 04:44:01;;;;;;;1999.90;999.90;;;15.60;99.90;;;;;;5074626;28;20197;-59
2022/06/29 04:46:28;;;;;;;1999.90;999.90;;;15.60;99.90;;;;;;5074992;28;20267;-59
2022/06/29 04:48:59;;;;;;;1999.90;999.90;;;15.60;99.90;;;;;;5075183;28;20206;-60
2022/06/29 04:51:27;;;;;;;1999.90;999.90;;;15.60;99.90;;;;;;5074557;28;20179;-60
2022/06/29 04:53:56;;;;;;;1999.90;999.90;;;15.70;99.90;;;;;;5075238;28;20226;-60
2022/06/29 04:56:24;;;;;;;1999.90;999.90;;;15.70;99.90;;;;;;5074958;28;20210;-64
2022/06/29 04:58:53;;;;;;;1999.90;999.90;;;15.80;99.90;;;;;;5075004;28;20212;-60
2022/06/29 05:01:21;;;;;;;1999.90;999.90;;;15.80;99.90;;;;;;5075409;28;20273;-59
2022/06/29 05:03:48;;;;;;;1999.90;999.90;;;15.90;99.90;;;;;;5074813;28;20198;-59
2022/06/29 05:06:17;;;;;;;1999.90;999.90;;;16.10;99.90;;;;;;5074367;28;20221;-59
2022/06/29 05:08:44;;;;;;;1999.90;999.90;;;16.30;99.90;;;;;;5074439;28;20209;-59
2022/06/29 05:11:13;;;;;;;1999.90;999.90;;;16.50;99.90;;;;;;5074194;28;20236;-60
2022/06/29 05:13:41;;;;;;;1999.90;999.90;;;17.10;99.90;;;;;;5074567;28;20202;-59
2022/06/29 05:16:09;;;;;;;1999.90;999.90;;;17.80;99.90;;;;;;5074450;28;20205;-60
2022/06/29 05:18:37;;;;;;;1999.90;999.90;;;18.70;99.90;;;;;;5073772;28;20197;-59
2022/06/29 05:21:04;;;;;;;1999.90;999.90;;;19.70;99.90;;;;;;5073965;28;20197;-59
2022/06/29 05:23:33;;;;;;;1999.90;999.90;;;20.10;99.90;;;;;;5073682;28;20199;-60
2022/06/29 05:26:01;;;;;;;1999.90;999.90;;;20.50;99.90;;;;;;5073875;28;20207;-60
2022/06/29 05:28:28;;;;;;;1999.90;999.90;;;19.70;99.90;;;;;;5073348;28;20195;-60
2022/06/29 05:30:55;;;;;;;1999.90;999.90;;;19.30;99.90;;;;;;5074100;28;20209;-60
2022/06/29 05:33:22;;;;;;;1999.90;999.90;;;18.90;99.90;;;;;;5073754;28;20561;-60
2022/06/29 05:35:49;;;;;;;1999.90;999.90;;;18.70;99.90;;;;;;5073496;28;20572;-60
2022/06/29 05:38:16;;;;;;;1999.90;999.90;;;18.70;99.90;;;;;;5073573;28;20199;-60
2022/06/29 05:40:45;;;;;;;1999.90;999.90;;;18.70;99.90;;;;;;5073326;28;20610;-59
2022/06/29 05:43:12;;;;;;;1999.90;999.90;;;18.80;99.90;;;;;;5073506;28;20222;-60
2022/06/29 05:45:39;;;;;;;1999.90;999.90;;;18.90;99.90;;;;;;5073641;28;20664;-60
2022/06/29 05:48:07;;;;;;;1999.90;999.90;;;19.30;99.90;;;;;;5073872;28;20197;-59
2022/06/29 05:50:34;;;;;;;1999.90;999.90;;;19.70;99.90;;;;;;5073482;28;20203;-60
2022/06/29 05:53:01;;;;;;;1999.90;999.90;;;20.40;99.90;;;;;;5072827;28;20195;-59
2022/06/29 05:55:28;;;;;;;1999.90;999.90;;;21.20;99.90;;;;;;5073451;28;20207;-58
2022/06/29 05:57:56;;;;;;;1999.90;999.90;;;22.30;99.90;;;;;;5073231;28;20614;-58
2022/06/29 06:00:25;;;;;;;1999.90;999.90;;;22.50;99.90;;;;;;5073193;28;20199;-58
2022/06/29 06:02:52;;;;;;;1999.90;999.90;;;21.60;99.90;;;;;;5073073;28;20213;-57
2022/06/29 06:05:19;;;;;;;1999.90;999.90;;;21.30;99.90;;;;;;5073369;28;20195;-57
2022/06/29 06:07:46;;;;;;;1999.90;999.90;;;20.80;99.90;;;;;;5073307;28;20195;-56
2022/06/29 06:10:14;;;;;;;1999.90;999.90;;;20.30;99.90;;;;;;5072976;28;20743;-57
2022/06/29 06:12:41;;;;;;;1999.90;999.90;;;19.90;99.90;;;;;;5072394;28;20203;-60
2022/06/29 06:15:10;;;;;;;1999.90;999.90;;;19.60;99.90;;;;;;5072545;28;20222;-59
2022/06/29 06:17:38;;;;;;;1999.90;999.90;;;19.70;99.90;;;;;;5071659;28;20197;-60
2022/06/29 06:20:06;;;;;;;1999.90;999.90;;;19.80;99.90;;;;;;5072567;28;20207;-59
2022/06/29 06:22:33;;;;;;;1999.90;999.90;;;19.80;99.90;;;;;;5072167;28;20195;-59
2022/06/29 06:25:00;;;;;;;1999.90;999.90;;;20.10;99.90;;;;;;5071715;28;20693;-60
2022/06/29 06:27:27;;;;;;;1999.90;999.90;;;21.10;99.90;;;;;;5069004;28;20259;-59
2022/06/29 06:29:54;;;;;;;1999.90;999.90;;;22.10;99.90;;;;;;5071861;28;20191;-58
2022/06/29 06:32:23;;;;;;;1999.90;999.90;;;23.40;99.90;;;;;;5071817;28;20195;-59
2022/06/29 06:34:50;;;;;;;1999.90;999.90;;;24.10;99.90;;;;;;5072412;28;20229;-59
2022/06/29 06:37:17;;;;;;;1999.90;999.90;;;24.00;1.00;;;;;;5072492;28;20199;-58
2022/06/29 06:41:21;;;;;;;1999.90;999.90;;;25.00;1.00;;;;;;5072455;28;20195;-59
2022/06/29 06:42:30;;;;;;;1999.90;999.90;;;24.60;49.00;;;;;;5072078;28;20186;-58
2022/06/29 06:44:57;;;;;;;1999.90;999.90;;;24.70;1.00;;;;;;5072131;28;20590;-58
2022/06/29 06:47:26;;;;;;;1999.90;999.90;;;24.50;99.90;;;;;;5072502;28;20205;-58
2022/06/29 06:49:53;;;;;;;1999.90;999.90;;;24.70;1.00;;;;;;5072298;28;20198;-60
2022/06/29 06:52:20;;;;;;;1999.90;999.90;;;24.30;99.90;;;;;;5072014;28;20660;-59
2022/06/29 06:54:47;;;;;;;1999.90;999.90;;;24.80;76.30;;;;;;5071760;28;20684;-60
2022/06/29 06:57:14;;;;;;;1999.90;999.90;;;24.60;1.00;;;;;;5071979;28;20220;-60
2022/06/29 06:59:41;;;;;;;1999.90;999.90;;;24.60;1.00;;;;;;5072200;28;20201;-59
2022/06/29 07:02:09;;;;;;;1999.90;999.90;;;24.90;1.00;;;;;;5071877;28;20672;-59
2022/06/29 07:04:37;;;;;;;1999.90;999.90;;;25.10;19.60;;;;;;5072091;28;20199;-59
2022/06/29 07:07:05;;;;;;;1999.90;999.90;;;25.10;1.00;;;;;;5071794;28;20195;-60
2022/06/29 07:09:32;;;;;;;1999.90;999.90;;;25.90;1.00;;;;;;5071811;28;20244;-59
2022/06/29 07:11:59;;;;;;;1999.90;999.90;;;26.10;99.90;;;;;;5071788;28;20707;-59
2022/06/29 07:14:26;;;;;;;1999.90;999.90;;;26.80;99.90;;;;;;5071956;28;20554;-60
2022/06/29 07:16:53;;;;;;;1999.90;999.90;;;26.10;1.00;;;;;;5071724;28;20664;-59
2022/06/29 07:19:20;;;;;;;1999.90;999.90;;;26.10;1.00;;;;;;5071954;28;20925;-58
2022/06/29 07:21:48;;;;;;;1999.90;999.90;;;25.30;99.90;;;;;;5071838;28;20195;-59
2022/06/29 07:24:16;;;;;;;1999.90;999.90;;;25.40;99.90;;;;;;5071893;28;20199;-60
2022/06/29 07:26:43;;;;;;;1999.90;999.90;;;26.20;99.90;;;;;;5071648;28;20597;-60
2022/06/29 07:29:10;;;;;;;1999.90;999.90;;;26.90;41.60;;;;;;5071858;28;20209;-59
2022/06/29 07:31:37;;;;;;;1999.90;999.90;;;26.70;1.00;;;;;;5071722;28;20195;-59
2022/06/29 07:34:05;;;;;;;1999.90;999.90;;;26.90;1.00;;;;;;5071786;28;20195;-58
2022/06/29 07:36:32;;;;;;;1999.90;999.90;;;26.90;1.00;;;;;;5071537;28;20223;-60
2022/06/29 07:39:00;;;;;;;1999.90;999.90;;;27.40;1.00;;;;;;5071520;28;20195;-59
2022/06/29 07:41:27;;;;;;;1999.90;999.90;;;27.60;1.00;;;;;;5072282;28;20203;-59
2022/06/29 07:43:55;;;;;;;1999.90;999.90;;;27.50;1.00;;;;;;5075775;28;20195;-60
2022/06/29 07:46:22;;;;;;;1999.90;999.90;;;27.10;99.90;;;;;;5075670;28;20195;-59
2022/06/29 07:48:50;;;;;;;1999.90;999.90;;;27.10;99.90;;;;;;5075611;28;20207;-61
2022/06/29 07:51:17;;;;;;;1999.90;999.90;;;27.20;99.90;;;;;;5075513;28;20191;-60
2022/06/29 07:53:44;;;;;;;1999.90;999.90;;;27.30;99.90;;;;;;5075437;28;20193;-60
2022/06/29 07:56:13;;;;;;;1999.90;999.90;;;27.40;99.90;;;;;;5075416;28;20215;-60
2022/06/29 07:58:40;;;;;;;1999.90;999.90;;;28.00;99.90;;;;;;5075418;28;20191;-60
2022/06/29 08:01:07;;;;;;;1999.90;999.90;;;28.00;99.90;;;;;;5075504;28;20201;-60
2022/06/29 08:03:34;;;;;;;1999.90;999.90;;;28.30;99.90;;;;;;5075338;28;20213;-60
2022/06/29 08:06:01;;;;;;;1999.90;999.90;;;27.30;99.90;;;;;;5075299;28;20194;-59
2022/06/29 08:08:29;;;;;;;1999.90;999.90;;;26.60;70.20;;;;;;5074944;28;20631;-60
2022/06/29 08:10:56;;;;;;;1999.90;999.90;;;25.90;41.80;;;;;;5074785;28;20271;-60
2022/06/29 08:13:24;;;;;;;1999.90;999.90;;;25.50;6.30;;;;;;5074997;28;20556;-60
2022/06/29 08:15:52;;;;;;;1999.90;999.90;;;25.00;1.00;;;;;;5074692;28;20594;-60
2022/06/29 08:18:19;;;;;;;1999.90;999.90;;;24.90;1.00;;;;;;5074736;28;20271;-60
2022/06/29 08:20:46;;;;;;;1999.90;999.90;;;24.70;1.00;;;;;;5074915;28;20570;-59
2022/06/29 08:23:13;;;;;;;1999.90;999.90;;;24.40;1.00;;;;;;5074664;28;20202;-59
2022/06/29 08:25:40;;;;;;;1999.90;999.90;;;24.30;1.00;;;;;;5074788;28;20201;-60
2022/06/29 08:28:07;;;;;;;1999.90;999.90;;;24.20;1.00;;;;;;5074769;28;20567;-59
2022/06/29 08:30:35;;;;;;;1999.90;999.90;;;23.90;1.00;;;;;;5075080;28;20195;-58
2022/06/29 08:33:03;;;;;;;1999.90;999.90;;;23.90;5.80;;;;;;5074811;28;20199;-58
2022/06/29 08:35:30;;;;;;;1999.90;999.90;;;23.90;1.00;;;;;;5074655;28;20218;-60
2022/06/29 08:37:57;;;;;;;1999.90;999.90;;;24.00;1.00;;;;;;5074492;28;20592;-59
2022/06/29 08:40:26;;;;;;;1999.90;999.90;;;24.20;1.00;;;;;;5074408;28;20199;-59
2022/06/29 08:42:55;;;;;;;1999.90;999.90;;;24.20;1.00;;;;;;5074299;28;20209;-60
2022/06/29 08:45:22;;;;;;;1999.90;999.90;;;24.20;99.90;;;;;;5074620;28;20203;-60
2022/06/29 08:47:51;;;;;;;1999.90;999.90;;;24.40;34.20;;;;;;5074230;28;20206;-60
2022/06/29 08:50:18;;;;;;;1999.90;999.90;;;24.50;1.00;;;;;;5074169;28;20694;-59
2022/06/29 08:52:46;;;;;;;1999.90;999.90;;;24.60;1.00;;;;;;5074290;28;20551;-59
2022/06/29 08:55:14;;;;;;;1999.90;999.90;;;24.70;1.00;;;;;;5073507;28;20215;-59
2022/06/29 08:57:42;;;;;;;1999.90;999.90;;;24.80;1.00;;;;;;5074356;28;20229;-59
2022/06/29 09:00:11;;;;;;;1999.90;999.90;;;25.00;1.00;;;;;;5074319;28;20195;-59
2022/06/29 09:02:39;;;;;;;1999.90;999.90;;;25.10;1.00;;;;;;5074177;28;20251;-60
2022/06/29 09:05:09;;;;;;;1999.90;999.90;;;25.00;1.00;;;;;;5074250;28;20202;-60
2022/06/29 09:07:36;;;;;;;1999.90;999.90;;;25.00;1.00;;;;;;5074005;28;20199;-60
2022/06/29 09:10:06;;;;;;;1999.90;999.90;;;25.20;1.00;;;;;;5073382;28;20222;-60
2022/06/29 09:12:33;;;;;;;1999.90;999.90;;;25.40;1.00;;;;;;5073578;28;20179;-60
2022/06/29 09:15:01;;;;;;;1999.90;999.90;;;25.70;1.00;;;;;;5073563;28;20660;-60
2022/06/29 09:17:31;;;;;;;1999.90;999.90;;;25.80;1.00;;;;;;5073629;28;20559;-59
2022/06/29 09:19:58;;;;;;;1999.90;999.90;;;26.30;1.00;;;;;;5073650;28;20564;-61
2022/06/29 09:22:27;;;;;;;1999.90;999.90;;;26.60;1.00;;;;;;5073474;28;20252;-61
2022/06/29 09:24:54;;;;;;;1999.90;999.90;;;27.00;1.00;;;;;;5073459;28;20559;-61
2022/06/29 09:27:24;;;;;;;1999.90;999.90;;;27.70;1.00;;;;;;5073588;28;20203;-60
2022/06/29 09:29:52;;;;;;;1999.90;999.90;;;28.00;1.00;;;;;;5073525;28;20523;-61
2022/06/29 09:32:21;;;;;;;1999.90;999.90;;;27.90;1.00;;;;;;5073821;28;20203;-60
2022/06/29 09:34:49;;;;;;;1999.90;999.90;;;27.50;1.00;;;;;;5073493;28;20202;-61
2022/06/29 09:37:18;;;;;;;1999.90;999.90;;;27.30;1.00;;;;;;5073263;28;20222;-61
2022/06/29 09:39:48;;;;;;;1999.90;999.90;;;27.60;1.00;;;;;;5073538;28;20207;-61
2022/06/29 09:42:17;;;;;;;1999.90;999.90;;;27.70;1.00;;;;;;5073480;28;20203;-62
2022/06/29 09:44:45;;;;;;;1999.90;999.90;;;28.00;1.00;;;;;;5073449;28;20203;-62
2022/06/29 09:47:15;;;;;;;1999.90;999.90;;;28.60;1.00;;;;;;5073086;28;20694;-62
2022/06/29 09:49:44;;;;;;;1999.90;999.90;;;28.80;1.00;;;;;;5072997;28;20179;-62
2022/06/29 09:52:12;;;;;;;1999.90;999.90;;;29.20;1.00;;;;;;5073350;28;20195;-62
2022/06/29 09:54:42;;;;;;;1999.90;999.90;;;29.40;1.00;;;;;;5073072;28;20209;-63
2022/06/29 09:57:12;;;;;;;1999.90;999.90;;;28.70;1.00;;;;;;5073102;28;20221;-63
2022/06/29 10:02:39;;;;;;;1999.90;999.90;;;28.70;1.00;;;;;;5072767;28;20636;-61
2022/06/29 10:05:09;;;;;;;1999.90;999.90;;;28.40;1.00;;;;;;5072381;28;20189;-62
2022/06/29 10:07:37;;;;;;;1999.90;999.90;;;28.10;1.00;;;;;;5072953;28;20199;-62
2022/06/29 10:10:07;;;;;;;1999.90;999.90;;;28.10;1.00;;;;;;5072335;28;20227;-62
2022/06/29 10:15:55;;;;;;;1999.90;999.90;;;28.60;1.00;;;;;;5072472;28;20657;-62
2022/06/29 10:18:36;;;;;;;1999.90;999.90;;;29.30;1.00;;;;;;5072516;28;20259;-62
2022/06/29 10:21:13;;;;;;;1999.90;999.90;;;29.80;1.00;;;;;;5072713;28;20183;-62
2022/06/29 10:23:47;;;;;;;1999.90;999.90;;;30.20;1.00;;;;;;5072616;28;20201;-62
2022/06/29 10:26:44;;;;;;;1999.90;999.90;;;30.60;1.00;;;;;;5072339;28;20186;-62
2022/06/29 10:29:32;;;;;;;1999.90;999.90;;;30.90;1.00;;;;;;5072583;28;20255;-62
2022/06/29 10:32:16;;;;;;;1999.90;999.90;;;31.00;1.00;;;;;;5072575;28;20201;-62
2022/06/29 10:37:31;;;;;;;1999.90;999.90;;;30.70;1.00;;;;;;5072145;28;20209;-62
2022/06/29 10:40:04;;;;;;;1999.90;999.90;;;31.10;1.00;;;;;;5072134;28;20683;-62
2022/06/29 10:45:36;;;;;;;1999.90;999.90;;;31.50;1.00;;;;;;5072064;28;20220;-61
2022/06/29 10:48:24;;;;;;;1999.90;999.90;;;31.30;1.00;;;;;;5072100;28;20660;-62
2022/06/29 10:50:52;;;;;;;1999.90;999.90;;;31.20;1.00;;;;;;5072324;28;20182;-61
2022/06/29 10:53:20;;;;;;;1999.90;999.90;;;30.80;1.00;;;;;;5071901;28;20660;-61
2022/06/29 10:55:50;;;;;;;1999.90;999.90;;;30.60;1.00;;;;;;5071934;28;20905;-62
2022/06/29 10:58:18;;;;;;;1999.90;999.90;;;30.90;1.00;;;;;;5072049;28;20661;-61
2022/06/29 11:00:48;;;;;;;1999.90;999.90;;;31.70;1.00;;;;;;5072198;28;20208;-61
2022/06/29 11:03:18;;;;;;;1999.90;999.90;;;31.30;99.90;;;;;;5071906;28;20182;-61
2022/06/29 11:14:05;;;;;;;1999.90;999.90;;;31.50;99.90;;;;;;5072110;28;20197;-61
2022/06/29 11:16:36;;;;;;;1999.90;999.90;;;32.20;99.90;;;;;;5073078;28;20578;-61
2022/06/29 11:19:04;;;;;;;1999.90;999.90;;;31.80;99.90;;;;;;5078428;28;20193;-62
2022/06/29 11:21:32;;;;;;;1999.90;999.90;;;31.60;99.90;;;;;;5078571;28;20199;-62
2022/06/29 11:24:04;;;;;;;1999.90;999.90;;;31.30;99.90;;;;;;5078284;28;20212;-62
2022/06/29 11:26:33;;;;;;;1999.90;999.90;;;31.20;99.90;;;;;;5078686;28;20181;-62
2022/06/29 11:29:01;;;;;;;1999.90;999.90;;;30.90;99.90;;;;;;5078409;28;20672;-62
2022/06/29 11:31:28;;;;;;;1999.90;999.90;;;30.80;99.90;;;;;;5078795;28;20206;-62
2022/06/29 11:33:57;;;;;;;1999.90;999.90;;;31.30;99.90;;;;;;5078588;28;20205;-62
2022/06/29 11:36:27;;;;;;;1999.90;999.90;;;31.10;99.90;;;;;;5078194;28;20207;-63
2022/06/29 11:38:56;;;;;;;1999.90;999.90;;;31.30;99.90;;;;;;5078388;28;20187;-62
2022/06/29 11:41:25;;;;;;;1999.90;999.90;;;31.20;99.90;;;;;;5078161;28;20194;-62
2022/06/29 11:44:04;;;;;;;1999.90;999.90;;;31.30;99.90;;;;;;5078107;28;20199;-62
2022/06/29 11:46:33;;;;;;;1999.90;999.90;;;31.30;99.90;;;;;;5078237;28;20182;-61
2022/06/29 11:51:51;;;;;;;1999.90;999.90;;;31.90;99.90;;;;;;5078412;28;20187;-61
2022/06/29 11:54:19;;;;;;;1999.90;999.90;;;31.60;99.90;;;;;;5078000;28;20202;-61
2022/06/29 11:56:47;;;;;;;1999.90;999.90;;;30.90;99.90;;;;;;5078548;28;20211;-61
2022/06/29 11:59:17;;;;;;;1999.90;999.90;;;31.20;99.90;;;;;;5078342;28;20203;-61
2022/06/29 12:01:54;;;;;;;1999.90;999.90;;;31.00;99.90;;;;;;5078420;28;20259;-61
2022/06/29 12:04:30;;;;;;;1999.90;999.90;;;31.40;99.90;;;;;;5078378;28;20213;-63
2022/06/29 12:07:09;;;;;;;1999.90;999.90;;;31.70;99.90;;;;;;5078505;28;20634;-60
2022/06/29 12:09:38;;;;;;;1999.90;999.90;;;31.30;99.90;;;;;;5078135;28;20183;-60
2022/06/29 12:12:07;;;;;;;1999.90;999.90;;;31.20;99.90;;;;;;5078048;28;20201;-60
2022/06/29 12:14:35;;;;;;;1999.90;999.90;;;31.30;99.90;;;;;;5077936;28;20195;-60
2022/06/29 12:17:02;;;;;;;1999.90;999.90;;;31.70;99.90;;;;;;5077783;28;20287;-62
2022/06/29 12:19:31;;;;;;;1999.90;999.90;;;31.80;99.90;;;;;;5077847;28;20212;-60
2022/06/29 12:21:58;;;;;;;1999.90;999.90;;;31.50;99.90;;;;;;5078122;28;20201;-60
2022/06/29 12:24:26;;;;;;;1999.90;999.90;;;31.40;99.90;;;;;;5077733;28;20194;-60
2022/06/29 12:26:54;;;;;;;1999.90;999.90;;;31.50;99.90;;;;;;5078149;28;20244;-59
2022/06/29 12:29:22;;;;;;;1999.90;999.90;;;31.10;99.90;;;;;;5074571;28;20205;-60
2022/06/29 12:31:49;;;;;;;1999.90;999.90;;;31.70;99.90;;;;;;5074607;28;20199;-60
2022/06/29 12:34:16;;;;;;;1999.90;999.90;;;31.20;99.90;;;;;;5074611;28;20212;-60